createdAt,value
2023-02-12T00:01:55.950Z,8.80
2023-02-12T00:06:58.907Z,8.80
2023-02-12T00:12:03.530Z,8.77
2023-02-12T00:17:06.480Z,8.90
2023-02-12T00:22:09.429Z,9.15
2023-02-12T00:27:13.815Z,9.24
2023-02-12T00:32:19.708Z,9.41
2023-02-12T00:37:22.653Z,9.68
2023-02-12T00:42:27.079Z,9.77
2023-02-12T00:47:30.053Z,9.81
2023-02-12T00:52:33.023Z,9.81
2023-02-12T00:57:37.356Z,9.84
2023-02-12T01:02:40.335Z,9.92
2023-02-12T01:07:43.309Z,9.93
2023-02-12T01:12:48.141Z,9.89
2023-02-12T01:17:52.713Z,9.84
2023-02-12T01:22:55.692Z,9.87
2023-02-12T01:28:00.021Z,9.81
2023-02-12T01:33:03.078Z,9.92
2023-02-12T01:38:06.081Z,9.93
2023-02-12T01:43:13.312Z,9.88
2023-02-12T01:48:17.728Z,9.97
2023-02-12T01:53:21.945Z,9.99
2023-02-12T01:58:28.272Z,9.99
2023-02-12T02:03:31.413Z,10.05
2023-02-12T02:08:35.271Z,10.04
2023-02-12T02:14:11.577Z,9.99
2023-02-12T02:19:20.982Z,10.02
2023-02-12T02:24:46.160Z,9.95
2023-02-12T02:30:16.064Z,9.94
2023-02-12T02:35:26.955Z,9.97
2023-02-12T02:40:34.569Z,9.89
2023-02-12T02:45:40.320Z,9.93
2023-02-12T02:50:47.625Z,9.86
2023-02-12T02:55:53.757Z,9.80
2023-02-12T03:00:59.730Z,9.75
2023-02-12T03:06:05.615Z,9.75
2023-02-12T03:11:23.519Z,9.70
2023-02-12T03:16:27.800Z,9.66
2023-02-12T03:21:35.247Z,9.66
2023-02-12T03:26:41.868Z,9.62
2023-02-12T03:31:52.585Z,9.58
2023-02-12T03:36:58.557Z,9.61
2023-02-12T03:42:03.886Z,9.59
2023-02-12T03:47:14.151Z,9.56
2023-02-12T03:52:18.549Z,9.57
2023-02-12T03:57:22.237Z,9.58
2023-02-12T04:02:25.199Z,9.55
2023-02-12T04:07:29.535Z,9.47
2023-02-12T04:12:35.728Z,9.48
2023-02-12T04:17:46.900Z,9.45
2023-02-12T04:22:55.926Z,9.44
2023-02-12T04:28:03.292Z,9.45
2023-02-12T04:33:07.379Z,9.46
2023-02-12T04:38:15.381Z,9.41
2023-02-12T04:43:27.664Z,9.41
2023-02-12T04:48:30.689Z,9.37
2023-02-12T04:53:35.007Z,9.36
2023-02-12T04:58:38.342Z,9.34
2023-02-12T05:03:41.282Z,9.21
2023-02-12T05:08:45.602Z,9.19
2023-02-12T05:13:50.290Z,9.11
2023-02-12T05:18:53.205Z,9.11
2023-02-12T05:23:57.647Z,9.06
2023-02-12T05:29:00.636Z,9.11
2023-02-12T05:34:03.593Z,9.09
2023-02-12T05:39:08.619Z,9.13
2023-02-12T05:44:12.746Z,9.12
2023-02-12T05:49:15.649Z,9.19
2023-02-12T05:54:20.042Z,9.17
2023-02-12T05:59:24.192Z,9.17
2023-02-12T06:04:28.456Z,9.18
2023-02-12T06:09:33.135Z,9.24
2023-02-12T06:14:36.247Z,9.26
2023-02-12T06:19:39.155Z,9.27
2023-02-12T06:24:43.492Z,9.29
2023-02-12T06:29:46.600Z,9.26
2023-02-12T06:34:49.665Z,9.19
2023-02-12T06:39:54.000Z,9.20
2023-02-12T06:44:57.001Z,9.16
2023-02-12T06:49:59.975Z,9.17
2023-02-12T06:55:04.495Z,9.10
2023-02-12T07:00:08.091Z,9.07
2023-02-12T07:05:11.121Z,9.08
2023-02-12T07:10:15.602Z,8.96
2023-02-12T07:15:18.696Z,8.90
2023-02-12T07:20:21.724Z,8.86
2023-02-12T07:25:26.067Z,8.84
2023-02-12T07:30:29.063Z,8.87
2023-02-12T07:35:32.102Z,8.81
2023-02-12T07:40:36.425Z,8.80
2023-02-12T07:45:39.462Z,8.76
2023-02-12T07:50:42.499Z,8.80
2023-02-12T07:55:46.908Z,8.77
2023-02-12T08:00:49.846Z,8.69
2023-02-12T08:05:52.787Z,8.77
2023-02-12T08:10:58.696Z,8.83
2023-02-12T08:16:02.106Z,8.79
2023-02-12T08:21:05.935Z,8.88
2023-02-12T08:26:11.714Z,8.90
2023-02-12T08:31:15.705Z,9.00
2023-02-12T08:36:20.226Z,9.29
2023-02-12T08:41:25.342Z,9.46
2023-02-12T08:46:29.511Z,9.60
2023-02-12T08:51:33.392Z,9.59
2023-02-12T08:56:37.758Z,9.70
2023-02-12T09:01:42.330Z,9.72
2023-02-12T09:06:45.652Z,9.82
2023-02-12T09:11:50.195Z,10.09
2023-02-12T09:16:53.732Z,10.40
2023-02-12T09:21:57.219Z,10.62
2023-02-12T09:27:01.676Z,10.48
2023-02-12T09:32:06.853Z,10.38
2023-02-12T09:37:09.947Z,10.42
2023-02-12T09:42:22.612Z,10.38
2023-02-12T09:47:28.517Z,10.48
2023-02-12T09:52:32.065Z,10.52
2023-02-12T09:57:37.697Z,10.63
2023-02-12T10:02:41.633Z,10.54
2023-02-12T10:07:56.093Z,10.59
2023-02-12T10:13:05.438Z,10.55
2023-02-12T10:18:25.960Z,10.81
2023-02-12T10:23:48.089Z,10.86
2023-02-12T10:28:53.109Z,11.04
2023-02-12T10:33:57.363Z,11.29
2023-02-12T10:39:03.011Z,11.29
2023-02-12T10:44:08.779Z,11.35
2023-02-12T10:49:13.371Z,11.38
2023-02-12T10:54:34.747Z,11.49
2023-02-12T10:59:39.240Z,11.66
2023-02-12T11:04:42.268Z,11.65
2023-02-12T11:09:46.681Z,11.87
2023-02-12T11:14:52.055Z,12.24
2023-02-12T11:20:22.700Z,12.36
2023-02-12T11:25:26.529Z,12.89
2023-02-12T11:30:31.171Z,13.54
2023-02-12T11:35:36.284Z,15.02
2023-02-12T11:40:39.331Z,16.06
2023-02-12T11:45:46.585Z,16.60
2023-02-12T11:50:50.271Z,16.94
2023-02-12T11:55:57.362Z,17.73
2023-02-12T12:01:07.048Z,17.74
2023-02-12T12:06:19.602Z,17.90
2023-02-12T12:11:25.765Z,17.60
2023-02-12T12:16:50.214Z,17.45
2023-02-12T12:21:58.827Z,17.02
2023-02-12T12:27:14.455Z,16.19
2023-02-12T12:32:19.710Z,15.64
2023-02-12T12:37:32.601Z,15.99
2023-02-12T12:42:48.363Z,15.71
2023-02-12T12:47:59.396Z,15.57
2023-02-12T12:53:08.552Z,15.47
2023-02-12T12:58:14.304Z,15.48
2023-02-12T13:03:32.090Z,15.17
2023-02-12T13:08:52.642Z,14.90
2023-02-12T13:14:01.161Z,14.54
2023-02-12T13:19:08.762Z,14.44
2023-02-12T13:24:19.418Z,14.47
2023-02-12T13:29:24.778Z,14.33
2023-02-12T13:34:28.843Z,14.51
2023-02-12T13:39:36.107Z,14.48
2023-02-12T13:44:45.061Z,14.54
2023-02-12T13:49:51.624Z,14.48
2023-02-12T13:55:00.271Z,14.61
2023-02-12T14:00:08.535Z,14.43
2023-02-12T14:05:22.733Z,14.54
2023-02-12T14:10:29.342Z,14.37
2023-02-12T14:15:34.396Z,14.35
2023-02-12T14:20:38.269Z,14.43
2023-02-12T14:25:43.387Z,14.39
2023-02-12T14:30:46.509Z,14.39
2023-02-12T14:35:51.403Z,14.25
2023-02-12T14:41:34.227Z,14.41
2023-02-12T14:46:47.790Z,14.48
2023-02-12T14:51:55.063Z,14.38
2023-02-12T14:57:01.859Z,14.43
2023-02-12T15:02:05.512Z,14.47
2023-02-12T15:07:10.598Z,14.54
2023-02-12T15:12:18.575Z,14.44
2023-02-12T15:17:22.465Z,14.53
2023-02-12T15:22:26.512Z,14.46
2023-02-12T15:27:30.927Z,14.54
2023-02-12T15:32:37.635Z,14.34
2023-02-12T15:37:41.481Z,14.38
2023-02-12T15:42:54.170Z,14.34
2023-02-12T15:48:00.742Z,14.39
2023-02-12T15:53:04.320Z,14.35
2023-02-12T15:58:20.135Z,14.30
2023-02-12T16:03:24.659Z,14.21
2023-02-12T16:08:27.720Z,14.27
2023-02-12T16:13:33.632Z,14.25
2023-02-12T16:18:36.518Z,14.11
2023-02-12T16:23:39.663Z,14.07
2023-02-12T16:28:47.472Z,14.05
2023-02-12T16:33:54.123Z,14.06
2023-02-12T16:38:57.724Z,14.00
2023-02-12T16:44:19.018Z,13.98
2023-02-12T16:49:24.451Z,13.94
2023-02-12T16:54:28.953Z,13.85
2023-02-12T16:59:31.823Z,13.84
2023-02-12T17:04:36.154Z,13.83
2023-02-12T17:09:39.043Z,13.75
2023-02-12T17:14:41.955Z,13.68
2023-02-12T17:19:46.222Z,13.71
2023-02-12T17:24:51.669Z,13.65
2023-02-12T17:29:54.553Z,13.67
2023-02-12T17:34:58.849Z,13.61
2023-02-12T17:40:02.552Z,13.58
2023-02-12T17:45:05.504Z,13.53
2023-02-12T17:50:11.637Z,13.52
2023-02-12T17:55:15.295Z,13.54
2023-02-12T18:00:18.805Z,13.49
2023-02-12T18:05:23.051Z,13.44
2023-02-12T18:10:26.019Z,13.42
2023-02-12T18:15:28.851Z,13.41
2023-02-12T18:20:33.416Z,13.40
2023-02-12T18:25:36.375Z,13.40
2023-02-12T18:30:42.913Z,13.43
2023-02-12T18:35:47.229Z,13.41
2023-02-12T18:40:50.133Z,13.43
2023-02-12T18:45:53.017Z,13.39
2023-02-12T18:51:01.201Z,13.32
2023-02-12T18:56:05.077Z,13.30
2023-02-12T19:01:13.537Z,13.28
2023-02-12T19:06:17.892Z,13.29
2023-02-12T19:11:20.758Z,13.27
2023-02-12T19:16:24.703Z,13.24
2023-02-12T19:21:28.974Z,13.27
2023-02-12T19:26:32.291Z,13.29
2023-02-12T19:31:36.411Z,13.23
2023-02-12T19:36:40.800Z,13.27
2023-02-12T19:41:43.665Z,13.24
2023-02-12T19:46:46.954Z,13.23
2023-02-12T19:51:51.315Z,13.23
2023-02-12T19:56:55.481Z,13.22
2023-02-12T20:01:58.328Z,13.22
2023-02-12T20:07:02.604Z,13.26
2023-02-12T20:12:05.620Z,13.22
2023-02-12T20:17:08.475Z,13.20
2023-02-12T20:22:12.766Z,13.16
2023-02-12T20:27:15.607Z,13.11
2023-02-12T20:32:18.496Z,13.09
2023-02-12T20:37:22.759Z,13.09
2023-02-12T20:42:25.689Z,13.06
2023-02-12T20:47:29.595Z,13.11
2023-02-12T20:52:33.831Z,13.04
2023-02-12T20:57:36.741Z,13.04
2023-02-12T21:02:39.743Z,13.05
2023-02-12T21:07:45.658Z,13.07
2023-02-12T21:12:48.615Z,13.08
2023-02-12T21:17:52.742Z,13.07
2023-02-12T21:22:57.025Z,13.07
2023-02-12T21:28:00.047Z,13.08
2023-02-12T21:33:02.998Z,13.12
2023-02-12T21:38:07.341Z,13.09
2023-02-12T21:43:10.507Z,13.09
2023-02-12T21:48:13.443Z,13.08
2023-02-12T21:53:18.472Z,13.06
2023-02-12T21:58:21.534Z,13.11
2023-02-12T22:03:24.466Z,13.12
2023-02-12T22:08:29.000Z,13.11
2023-02-12T22:13:32.344Z,13.10
2023-02-12T22:18:35.309Z,13.10
2023-02-12T22:23:39.949Z,13.10
2023-02-12T22:28:44.051Z,13.14
2023-02-12T22:33:47.220Z,13.08
2023-02-12T22:38:51.551Z,13.03
2023-02-12T22:43:54.533Z,12.99
2023-02-12T22:48:57.414Z,13.04
2023-02-12T22:54:01.746Z,13.04
2023-02-12T22:59:04.722Z,13.01
2023-02-12T23:04:07.780Z,12.94
2023-02-12T23:09:13.320Z,12.96
2023-02-12T23:14:16.283Z,12.93
2023-02-12T23:19:19.258Z,12.90
2023-02-12T23:24:24.825Z,12.87
2023-02-12T23:29:27.815Z,12.81
2023-02-12T23:34:30.800Z,12.83
2023-02-12T23:39:35.203Z,12.81
2023-02-12T23:44:38.987Z,12.76
2023-02-12T23:49:41.952Z,12.78
2023-02-12T23:54:46.296Z,12.76
2023-02-12T23:59:49.219Z,12.81
